createdAt,value
2022-09-28T00:02:06.109Z,98392.38
2022-09-28T00:04:39.891Z,98396.75
2022-09-28T00:07:14.804Z,98391.41
2022-09-28T00:09:48.405Z,98384.31
2022-09-28T00:12:23.982Z,98391.41
2022-09-28T00:14:57.548Z,98390.66
2022-09-28T00:17:30.987Z,98387.13
2022-09-28T00:20:06.088Z,98387.97
2022-09-28T00:22:41.273Z,98385.28
2022-09-28T00:25:17.063Z,98385.16
2022-09-28T00:27:51.882Z,98379.78
2022-09-28T00:30:25.609Z,98376.97
2022-09-28T00:33:03.983Z,98368.81
2022-09-28T00:35:46.967Z,98371.47
2022-09-28T00:38:32.910Z,98360.63
2022-09-28T00:41:22.168Z,98355.53
2022-09-28T00:44:35.387Z,98354.56
2022-09-28T00:47:32.019Z,98361.16
2022-09-28T00:50:18.947Z,98355.19
2022-09-28T00:52:57.565Z,98355.47
2022-09-28T00:55:45.837Z,98353.66
2022-09-28T00:58:28.364Z,98352.22
2022-09-28T01:01:16.690Z,98355.31
2022-09-28T01:03:55.655Z,98351.22
2022-09-28T01:06:34.690Z,98362.78
2022-09-28T01:09:12.491Z,98355.00
2022-09-28T01:11:48.052Z,98357.09
2022-09-28T01:14:22.957Z,98350.31
2022-09-28T01:17:06.034Z,98350.56
2022-09-28T01:20:28.347Z,98352.41
2022-09-28T01:23:26.394Z,98358.31
2022-09-28T01:26:31.597Z,98352.91
2022-09-28T01:29:12.558Z,98353.56
2022-09-28T01:31:51.467Z,98354.91
2022-09-28T01:34:30.311Z,98361.66
2022-09-28T01:37:06.444Z,98366.44
2022-09-28T01:39:44.217Z,98364.28
2022-09-28T01:42:23.641Z,98372.59
2022-09-28T01:45:04.037Z,98371.00
2022-09-28T01:47:41.616Z,98371.41
2022-09-28T01:50:19.752Z,98375.31
2022-09-28T01:52:56.701Z,98381.06
2022-09-28T01:55:35.668Z,98382.28
2022-09-28T01:58:16.847Z,98379.88
2022-09-28T02:00:55.821Z,98379.16
2022-09-28T02:03:36.148Z,98382.81
2022-09-28T02:06:16.282Z,98382.94
2022-09-28T02:08:54.090Z,98370.66
2022-09-28T02:11:37.424Z,98380.66
2022-09-28T02:14:17.226Z,98378.13
2022-09-28T02:16:55.587Z,98383.59
2022-09-28T02:19:35.254Z,98373.84
2022-09-28T02:22:23.483Z,98377.50
2022-09-28T02:25:04.924Z,98378.25
2022-09-28T02:27:44.490Z,98381.88
2022-09-28T02:30:20.361Z,98369.47
2022-09-28T02:32:58.507Z,98370.59
2022-09-28T02:35:34.119Z,98362.69
2022-09-28T02:38:07.673Z,98373.41
2022-09-28T02:40:42.367Z,98377.16
2022-09-28T02:43:23.932Z,98372.06
2022-09-28T02:46:10.636Z,98373.91
2022-09-28T02:49:20.516Z,98368.81
2022-09-28T02:52:15.308Z,98376.13
2022-09-28T02:55:05.951Z,98366.63
2022-09-28T02:57:49.541Z,98362.38
2022-09-28T03:00:25.354Z,98368.84
2022-09-28T03:03:10.295Z,98368.22
2022-09-28T03:05:52.066Z,98366.50
2022-09-28T03:08:31.441Z,98375.38
2022-09-28T03:11:11.060Z,98363.84
2022-09-28T03:13:45.333Z,98381.38
2022-09-28T03:16:21.175Z,98375.25
2022-09-28T03:18:57.655Z,98375.38
2022-09-28T03:21:31.251Z,98371.88
2022-09-28T03:24:06.118Z,98377.09
2022-09-28T03:26:39.935Z,98371.88
2022-09-28T03:29:13.728Z,98375.38
2022-09-28T03:31:49.379Z,98386.84
2022-09-28T03:34:26.905Z,98386.84
2022-09-28T03:37:01.166Z,98386.09
2022-09-28T03:39:34.789Z,98376.38
2022-09-28T03:42:08.560Z,98377.59
2022-09-28T03:44:45.721Z,98379.56
2022-09-28T03:47:19.771Z,98383.44
2022-09-28T03:49:54.742Z,98395.00
2022-09-28T03:52:28.358Z,98391.38
2022-09-28T03:55:01.953Z,98388.97
2022-09-28T03:57:35.586Z,98399.31
2022-09-28T04:00:10.635Z,98400.25
2022-09-28T04:02:50.018Z,98395.16
2022-09-28T04:05:25.060Z,98407.81
2022-09-28T04:07:59.067Z,98409.66
2022-09-28T04:10:33.668Z,98409.75
2022-09-28T04:13:07.434Z,98412.44
2022-09-28T04:15:40.893Z,98411.84
2022-09-28T04:18:14.573Z,98411.22
2022-09-28T04:21:20.783Z,98409.50
2022-09-28T04:24:03.373Z,98417.28
2022-09-28T04:26:36.983Z,98419.47
2022-09-28T04:29:16.336Z,98422.25
2022-09-28T04:32:01.514Z,98427.13
2022-09-28T04:34:45.527Z,98413.03
2022-09-28T04:37:20.198Z,98406.94
2022-09-28T04:39:53.833Z,98411.56
2022-09-28T04:42:27.561Z,98407.53
2022-09-28T04:45:01.142Z,98409.72
2022-09-28T04:47:35.188Z,98416.50
2022-09-28T04:50:26.193Z,98412.59
2022-09-28T04:53:19.599Z,98407.59
2022-09-28T04:56:00.033Z,98410.63
2022-09-28T04:58:35.594Z,98403.09
2022-09-28T05:01:11.926Z,98401.41
2022-09-28T05:04:05.631Z,98408.78
2022-09-28T05:06:39.112Z,98405.38
2022-09-28T05:09:15.108Z,98409.13
2022-09-28T05:11:50.998Z,98409.13
2022-09-28T05:14:25.942Z,98400.25
2022-09-28T05:16:59.587Z,98406.34
2022-09-28T05:19:34.993Z,98406.34
2022-09-28T05:22:15.005Z,98405.47
2022-09-28T05:24:55.089Z,98405.38
2022-09-28T05:27:30.714Z,98394.56
2022-09-28T05:30:12.720Z,98404.06
2022-09-28T05:33:06.905Z,98403.59
2022-09-28T05:36:03.466Z,98405.81
2022-09-28T05:38:37.206Z,98408.72
2022-09-28T05:41:12.372Z,98415.16
2022-09-28T05:43:47.036Z,98412.75
2022-09-28T05:46:21.978Z,98415.69
2022-09-28T05:48:55.762Z,98414.00
2022-09-28T05:51:32.250Z,98414.84
2022-09-28T05:54:06.484Z,98413.88
2022-09-28T05:56:44.177Z,98419.09
2022-09-28T05:59:17.951Z,98421.63
2022-09-28T06:01:51.497Z,98410.81
2022-09-28T06:04:25.142Z,98415.16
2022-09-28T06:06:58.788Z,98411.38
2022-09-28T06:09:33.038Z,98411.25
2022-09-28T06:12:20.175Z,98410.50
2022-09-28T06:15:02.539Z,98408.03
2022-09-28T06:17:36.082Z,98409.31
2022-09-28T06:20:48.006Z,98411.34
2022-09-28T06:23:23.001Z,98419.59
2022-09-28T06:25:56.328Z,98411.97
2022-09-28T06:28:31.787Z,98412.69
2022-09-28T06:31:05.635Z,98414.72
2022-09-28T06:33:53.021Z,98418.81
2022-09-28T06:36:27.315Z,98415.88
2022-09-28T06:39:00.611Z,98415.09
2022-09-28T06:41:35.417Z,98420.19
2022-09-28T06:44:20.738Z,98425.63
2022-09-28T06:47:22.473Z,98418.94
2022-09-28T06:50:21.713Z,98431.75
2022-09-28T06:53:18.922Z,98436.78
2022-09-28T06:56:32.566Z,98436.59
2022-09-28T06:59:06.537Z,98434.09
2022-09-28T07:01:43.014Z,98430.16
2022-09-28T07:04:29.499Z,98443.75
2022-09-28T07:07:21.766Z,98436.25
2022-09-28T07:10:13.037Z,98439.63
2022-09-28T07:13:42.875Z,98444.84
2022-09-28T07:16:14.222Z,98436.63
2022-09-28T07:18:57.558Z,98431.81
2022-09-28T07:21:31.232Z,98437.81
2022-09-28T07:24:12.623Z,98430.59
2022-09-28T07:27:06.368Z,98431.09
2022-09-28T07:30:12.641Z,98441.25
2022-09-28T07:33:25.634Z,98446.22
2022-09-28T07:36:19.074Z,98446.75
2022-09-28T07:38:52.888Z,98439.09
2022-09-28T07:41:32.751Z,98429.81
2022-09-28T07:44:08.736Z,98430.88
2022-09-28T07:46:45.248Z,98430.50
2022-09-28T07:49:28.747Z,98436.44
2022-09-28T07:52:29.051Z,98432.19
2022-09-28T07:55:16.484Z,98428.41
2022-09-28T07:57:56.785Z,98423.69
2022-09-28T08:01:10.788Z,98430.78
2022-09-28T08:03:48.889Z,98429.16
2022-09-28T08:06:26.032Z,98428.59
2022-09-28T08:09:02.182Z,98433.47
2022-09-28T08:12:10.341Z,98439.44
2022-09-28T08:14:52.932Z,98446.34
2022-09-28T08:17:57.982Z,98441.75
2022-09-28T08:20:53.270Z,98447.75
2022-09-28T08:23:26.876Z,98442.78
2022-09-28T08:26:05.924Z,98453.94
2022-09-28T08:28:40.555Z,98447.63
2022-09-28T08:31:45.458Z,98441.34
2022-09-28T08:34:42.879Z,98444.72
2022-09-28T08:37:38.288Z,98442.91
2022-09-28T08:41:12.489Z,98448.28
2022-09-28T08:44:40.698Z,98435.72
2022-09-28T08:47:42.049Z,98440.34
2022-09-28T08:50:50.448Z,98437.69
2022-09-28T08:53:46.093Z,98441.34
2022-09-28T08:56:33.959Z,98432.41
2022-09-28T08:59:20.116Z,98439.66
2022-09-28T09:02:03.783Z,98448.84
2022-09-28T09:04:45.720Z,98440.72
2022-09-28T09:07:54.323Z,98448.00
2022-09-28T09:15:18.177Z,98443.66
2022-09-28T09:18:10.702Z,98446.91
2022-09-28T09:20:58.711Z,98442.69
2022-09-28T09:24:01.348Z,98447.34
2022-09-28T09:26:39.396Z,98448.38
2022-09-28T09:29:36.521Z,98448.78
2022-09-28T09:32:29.114Z,98449.84
2022-09-28T09:35:16.617Z,98449.84
2022-09-28T09:38:33.776Z,98452.63
2022-09-28T09:41:43.571Z,98440.88
2022-09-28T09:44:59.167Z,98444.81
2022-09-28T09:47:57.906Z,98440.41
2022-09-28T09:50:39.568Z,98446.72
2022-09-28T09:53:21.256Z,98444.75
2022-09-28T09:55:57.595Z,98444.13
2022-09-28T09:58:48.136Z,98447.31
2022-09-28T10:01:40.080Z,98446.97
2022-09-28T10:04:32.603Z,98447.91
2022-09-28T10:07:19.605Z,98443.94
2022-09-28T10:09:58.723Z,98448.69
2022-09-28T10:12:54.243Z,98447.78
2022-09-28T10:15:30.113Z,98445.94
2022-09-28T10:18:22.484Z,98444.97
2022-09-28T10:21:15.567Z,98444.84
2022-09-28T10:23:59.953Z,98447.13
2022-09-28T10:26:41.429Z,98441.56
2022-09-28T10:29:22.881Z,98441.56
2022-09-28T10:31:56.459Z,98457.59
2022-09-28T10:34:32.892Z,98453.94
2022-09-28T10:37:13.896Z,98446.69
2022-09-28T10:40:30.563Z,98437.88
2022-09-28T10:43:24.579Z,98443.09
2022-09-28T10:46:03.120Z,98443.22
2022-09-28T10:48:49.780Z,98446.31
2022-09-28T10:51:41.599Z,98450.91
2022-09-28T10:54:21.457Z,98446.50
2022-09-28T10:56:58.738Z,98441.06
2022-09-28T10:59:43.806Z,98449.47
2022-09-28T11:02:35.924Z,98447.34
2022-09-28T11:05:30.537Z,98432.31
2022-09-28T11:08:09.067Z,98433.78
2022-09-28T11:11:04.132Z,98442.94
2022-09-28T11:13:49.230Z,98441.88
2022-09-28T11:16:31.998Z,98445.13
2022-09-28T11:19:30.031Z,98448.41
2022-09-28T11:22:21.540Z,98455.56
2022-09-28T11:25:20.645Z,98453.75
2022-09-28T11:28:04.748Z,98457.75
2022-09-28T11:30:48.545Z,98465.84
2022-09-28T11:33:45.053Z,98460.09
2022-09-28T11:36:50.700Z,98453.63
2022-09-28T11:39:30.941Z,98465.72
2022-09-28T11:42:17.696Z,98453.25
2022-09-28T11:45:00.424Z,98455.38
2022-09-28T11:47:50.804Z,98458.88
2022-09-28T11:50:46.805Z,98460.88
2022-09-28T11:53:28.080Z,98458.84
2022-09-28T11:56:15.799Z,98455.72
2022-09-28T11:58:50.535Z,98452.06
2022-09-28T12:01:35.792Z,98448.47
2022-09-28T12:04:39.041Z,98452.56
2022-09-28T12:07:20.815Z,98459.59
2022-09-28T12:10:00.225Z,98440.22
2022-09-28T12:12:38.662Z,98450.25
2022-09-28T12:15:20.317Z,98445.56
2022-09-28T12:17:58.833Z,98446.56
2022-09-28T12:20:36.082Z,98442.50
2022-09-28T12:23:16.060Z,98443.72
2022-09-28T12:25:56.529Z,98436.94
2022-09-28T12:28:39.650Z,98434.19
2022-09-28T12:31:19.352Z,98422.13
2022-09-28T12:33:59.554Z,98426.56
2022-09-28T12:36:55.306Z,98434.38
2022-09-28T12:39:57.539Z,98440.75
2022-09-28T12:42:46.764Z,98434.72
2022-09-28T12:45:38.865Z,98434.53
2022-09-28T12:49:21.703Z,98429.78
2022-09-28T12:51:51.589Z,98420.28
2022-09-28T12:54:50.804Z,98416.47
2022-09-28T12:57:58.448Z,98409.88
2022-09-28T13:00:40.157Z,98412.53
2022-09-28T13:03:58.690Z,98414.78
2022-09-28T13:06:57.510Z,98418.25
2022-09-28T13:09:39.021Z,98407.59
2022-09-28T13:12:20.571Z,98415.13
2022-09-28T13:15:48.698Z,98410.44
2022-09-28T13:18:30.610Z,98415.56
2022-09-28T13:21:16.232Z,98419.13
2022-09-28T13:23:51.893Z,98422.28
2022-09-28T13:26:34.167Z,98424.69
2022-09-28T13:29:20.613Z,98432.88
2022-09-28T13:32:06.361Z,98435.25
2022-09-28T13:34:59.682Z,98422.41
2022-09-28T13:37:38.512Z,98420.50
2022-09-28T13:40:12.102Z,98415.53
2022-09-28T13:43:19.383Z,98417.47
2022-09-28T13:46:01.184Z,98415.38
2022-09-28T13:48:48.731Z,98412.09
2022-09-28T13:51:42.247Z,98413.28
2022-09-28T13:54:30.764Z,98411.25
2022-09-28T13:57:14.863Z,98416.66
2022-09-28T13:59:59.510Z,98409.19
2022-09-28T14:02:37.948Z,98407.13
2022-09-28T14:05:52.938Z,98401.56
2022-09-28T14:08:35.190Z,98407.94
2022-09-28T14:11:45.084Z,98411.63
2022-09-28T14:14:45.603Z,98416.25
2022-09-28T14:17:58.399Z,98412.34
2022-09-28T14:20:32.805Z,98420.66
2022-09-28T14:23:47.854Z,98415.44
2022-09-28T14:26:50.999Z,98413.28
2022-09-28T14:29:29.892Z,98414.97
2022-09-28T14:32:06.980Z,98417.66
2022-09-28T14:34:49.271Z,98420.50
2022-09-28T14:37:46.709Z,98425.53
2022-09-28T14:40:39.641Z,98428.44
2022-09-28T14:43:37.844Z,98434.31
2022-09-28T14:46:33.455Z,98428.53
2022-09-28T14:49:54.812Z,98415.84
2022-09-28T14:52:41.908Z,98411.22
2022-09-28T14:55:19.133Z,98402.63
2022-09-28T14:57:55.938Z,98404.78
2022-09-28T15:00:32.211Z,98402.69
2022-09-28T15:03:22.201Z,98406.16
2022-09-28T15:05:55.991Z,98411.78
2022-09-28T15:08:41.767Z,98410.66
2022-09-28T15:11:22.878Z,98420.66
2022-09-28T15:14:08.823Z,98415.88
2022-09-28T15:16:43.868Z,98424.88
2022-09-28T15:19:29.845Z,98420.09
2022-09-28T15:22:03.602Z,98418.97
2022-09-28T15:24:38.572Z,98420.41
2022-09-28T15:27:19.268Z,98418.19
2022-09-28T15:30:02.677Z,98411.25
2022-09-28T15:32:37.803Z,98404.75
2022-09-28T15:35:14.692Z,98411.16
2022-09-28T15:37:52.156Z,98417.81
2022-09-28T15:40:33.243Z,98413.72
2022-09-28T15:43:23.760Z,98405.22
2022-09-28T15:46:07.717Z,98413.91
2022-09-28T15:48:52.101Z,98398.22
2022-09-28T15:51:27.701Z,98392.25
2022-09-28T15:54:04.558Z,98397.66
2022-09-28T15:56:53.377Z,98395.69
2022-09-28T15:59:33.024Z,98400.63
2022-09-28T16:02:22.025Z,98400.34
2022-09-28T16:04:59.141Z,98396.13
2022-09-28T16:07:39.976Z,98392.41
2022-09-28T16:10:33.736Z,98387.91
2022-09-28T16:13:17.296Z,98389.19
2022-09-28T16:16:00.432Z,98381.25
2022-09-28T16:18:38.915Z,98384.38
2022-09-28T16:21:45.408Z,98384.97
2022-09-28T16:24:25.522Z,98401.13
2022-09-28T16:27:01.731Z,98411.31
2022-09-28T16:29:40.291Z,98409.91
2022-09-28T16:32:38.590Z,98397.47
2022-09-28T16:35:25.630Z,98413.91
2022-09-28T16:38:12.106Z,98414.03
2022-09-28T16:40:48.232Z,98414.47
2022-09-28T16:43:27.105Z,98412.75
2022-09-28T16:46:03.108Z,98400.88
2022-09-28T16:48:48.823Z,98415.88
2022-09-28T16:51:24.472Z,98424.66
2022-09-28T16:54:30.374Z,98421.97
2022-09-28T16:57:11.305Z,98423.94
2022-09-28T16:59:44.834Z,98434.13
2022-09-28T17:02:46.567Z,98440.78
2022-09-28T17:05:21.372Z,98451.41
2022-09-28T17:08:01.647Z,98456.56
2022-09-28T17:11:02.486Z,98461.94
2022-09-28T17:13:37.634Z,98461.13
2022-09-28T17:16:13.012Z,98468.75
2022-09-28T17:18:48.958Z,98464.63
2022-09-28T17:21:22.721Z,98463.38
2022-09-28T17:23:56.254Z,98468.41
2022-09-28T17:26:33.603Z,98467.28
2022-09-28T17:29:10.016Z,98486.06
2022-09-28T17:31:45.234Z,98480.06
2022-09-28T17:34:34.174Z,98482.16
2022-09-28T17:37:15.667Z,98479.44
2022-09-28T17:39:51.834Z,98478.00
2022-09-28T17:42:26.890Z,98484.50
2022-09-28T17:45:00.361Z,98474.88
2022-09-28T17:47:34.510Z,98472.31
2022-09-28T17:50:22.718Z,98477.69
2022-09-28T17:52:58.090Z,98476.66
2022-09-28T17:55:36.789Z,98471.56
2022-09-28T17:58:17.890Z,98466.59
2022-09-28T18:00:52.996Z,98472.59
2022-09-28T18:03:28.498Z,98467.06
2022-09-28T18:06:04.871Z,98461.38
2022-09-28T18:08:38.978Z,98463.59
2022-09-28T18:11:13.062Z,98457.66
2022-09-28T18:13:47.970Z,98457.31
2022-09-28T18:16:22.883Z,98463.91
2022-09-28T18:18:57.738Z,98465.19
2022-09-28T18:21:33.262Z,98461.31
2022-09-28T18:24:07.093Z,98455.50
2022-09-28T18:26:40.595Z,98460.53
2022-09-28T18:29:15.497Z,98462.00
2022-09-28T18:31:49.571Z,98454.34
2022-09-28T18:34:23.243Z,98453.75
2022-09-28T18:36:56.356Z,98444.00
2022-09-28T18:39:30.565Z,98444.06
2022-09-28T18:42:04.370Z,98435.53
2022-09-28T18:44:39.016Z,98435.03
2022-09-28T18:47:17.684Z,98421.81
2022-09-28T18:49:54.085Z,98430.22
2022-09-28T18:52:29.492Z,98422.69
2022-09-28T18:55:03.019Z,98432.81
2022-09-28T18:57:37.047Z,98428.56
2022-09-28T19:00:14.889Z,98427.25
2022-09-28T19:02:48.554Z,98426.66
2022-09-28T19:05:21.845Z,98429.81
2022-09-28T19:07:55.508Z,98427.44
2022-09-28T19:10:29.035Z,98433.41
2022-09-28T19:13:02.514Z,98431.09
2022-09-28T19:15:38.482Z,98433.41
2022-09-28T19:18:12.078Z,98428.41
2022-09-28T19:20:45.608Z,98430.75
2022-09-28T19:23:19.156Z,98435.38
2022-09-28T19:25:54.196Z,98437.31
2022-09-28T19:28:27.999Z,98440.09
2022-09-28T19:31:03.371Z,98437.28
2022-09-28T19:33:37.212Z,98440.59
2022-09-28T19:36:11.248Z,98441.53
2022-09-28T19:38:44.714Z,98441.44
2022-09-28T19:41:43.481Z,98442.66
2022-09-28T19:44:24.897Z,98447.41
2022-09-28T19:47:04.316Z,98446.94
2022-09-28T19:49:39.138Z,98449.97
2022-09-28T19:52:17.262Z,98453.97
2022-09-28T19:54:57.066Z,98464.78
2022-09-28T19:57:32.919Z,98460.69
2022-09-28T20:00:11.538Z,98462.22
2022-09-28T20:02:46.594Z,98454.09
2022-09-28T20:05:20.372Z,98462.75
2022-09-28T20:07:53.725Z,98458.94
2022-09-28T20:10:27.383Z,98464.66
2022-09-28T20:13:00.711Z,98475.38
2022-09-28T20:15:48.005Z,98481.56
2022-09-28T20:18:27.703Z,98475.22
2022-09-28T20:21:06.391Z,98481.44
2022-09-28T20:23:40.815Z,98499.06
2022-09-28T20:26:16.240Z,98492.88
2022-09-28T20:28:50.071Z,98487.28
2022-09-28T20:31:25.480Z,98497.75
2022-09-28T20:34:17.939Z,98494.81
2022-09-28T20:36:51.706Z,98499.69
2022-09-28T20:39:26.841Z,98503.78
2022-09-28T20:42:01.157Z,98511.47
2022-09-28T20:44:35.123Z,98502.38
2022-09-28T20:47:11.179Z,98506.59
2022-09-28T20:49:46.553Z,98502.09
2022-09-28T20:52:20.722Z,98506.47
2022-09-28T20:54:55.657Z,98516.47
2022-09-28T20:57:29.389Z,98522.66
2022-09-28T21:00:03.358Z,98517.31
2022-09-28T21:02:37.037Z,98514.03
2022-09-28T21:05:12.120Z,98512.56
2022-09-28T21:07:45.681Z,98512.56
2022-09-28T21:10:19.278Z,98502.94
2022-09-28T21:12:53.314Z,98504.03
2022-09-28T21:15:26.911Z,98506.84
2022-09-28T21:18:00.427Z,98508.53
2022-09-28T21:20:35.713Z,98506.84
2022-09-28T21:23:09.292Z,98505.53
2022-09-28T21:25:45.619Z,98520.22
2022-09-28T21:28:19.291Z,98528.84
2022-09-28T21:30:53.295Z,98526.91
2022-09-28T21:33:26.822Z,98524.97
2022-09-28T21:36:04.106Z,98527.97
2022-09-28T21:38:37.747Z,98529.31
2022-09-28T21:41:11.780Z,98528.94
2022-09-28T21:43:45.352Z,98531.50
2022-09-28T21:46:19.100Z,98532.81
2022-09-28T21:48:52.705Z,98541.66
2022-09-28T21:51:31.171Z,98533.25
2022-09-28T21:54:08.301Z,98531.16
2022-09-28T21:56:47.607Z,98535.22
2022-09-28T21:59:21.436Z,98527.69
2022-09-28T22:01:54.804Z,98536.94
2022-09-28T22:04:28.557Z,98545.03
2022-09-28T22:07:03.368Z,98554.28
2022-09-28T22:09:36.928Z,98551.78
2022-09-28T22:12:10.821Z,98556.50
2022-09-28T22:14:44.014Z,98547.94
2022-09-28T22:17:21.957Z,98551.28
2022-09-28T22:19:55.568Z,98549.34
2022-09-28T22:22:32.874Z,98551.28
2022-09-28T22:25:07.536Z,98561.84
2022-09-28T22:27:43.366Z,98557.47
2022-09-28T22:30:17.036Z,98558.22
2022-09-28T22:32:50.287Z,98556.31
2022-09-28T22:35:23.786Z,98558.72
2022-09-28T22:38:00.985Z,98557.88
2022-09-28T22:40:34.559Z,98564.91
2022-09-28T22:43:08.253Z,98563.94
2022-09-28T22:45:41.786Z,98570.25
2022-09-28T22:48:15.688Z,98569.41
2022-09-28T22:50:49.766Z,98562.63
2022-09-28T22:53:25.056Z,98566.72
2022-09-28T22:55:59.637Z,98562.47
2022-09-28T22:58:33.531Z,98567.19
2022-09-28T23:01:08.897Z,98558.66
2022-09-28T23:03:42.933Z,98562.28
2022-09-28T23:06:21.532Z,98546.84
2022-09-28T23:08:56.571Z,98546.31
2022-09-28T23:11:30.403Z,98553.81
2022-09-28T23:14:04.214Z,98564.78
2022-09-28T23:16:37.886Z,98565.88
2022-09-28T23:19:11.618Z,98570.69
2022-09-28T23:21:45.142Z,98571.84
2022-09-28T23:24:26.266Z,98589.69
2022-09-28T23:26:59.944Z,98580.56
2022-09-28T23:29:33.499Z,98589.63
2022-09-28T23:32:11.488Z,98586.22
2022-09-28T23:34:45.173Z,98600.50
2022-09-28T23:37:18.730Z,98592.50
2022-09-28T23:39:53.890Z,98587.94
2022-09-28T23:42:27.366Z,98592.19
2022-09-28T23:45:00.929Z,98584.19
2022-09-28T23:47:37.401Z,98585.78
2022-09-28T23:50:11.134Z,98587.69
2022-09-28T23:52:44.601Z,98589.50
2022-09-28T23:55:19.921Z,98583.34
2022-09-28T23:57:55.728Z,98592.06
